createdAt,value
2023-06-29T00:00:30.825Z,2.29
2023-06-29T00:01:30.833Z,1.97
2023-06-29T00:02:30.826Z,2.40
2023-06-29T00:03:30.984Z,2.28
2023-06-29T00:04:30.931Z,2.01
2023-06-29T00:05:30.992Z,2.32
2023-06-29T00:06:31.041Z,2.30
2023-06-29T00:07:31.188Z,2.34
2023-06-29T00:08:31.187Z,1.99
2023-06-29T00:09:31.246Z,2.27
2023-06-29T00:10:31.317Z,2.29
2023-06-29T00:11:31.373Z,2.10
2023-06-29T00:12:31.436Z,2.22
2023-06-29T00:13:31.489Z,2.30
2023-06-29T00:14:31.568Z,2.13
2023-06-29T00:15:31.614Z,1.74
2023-06-29T00:16:31.809Z,1.69
2023-06-29T00:17:31.740Z,2.71
2023-06-29T00:18:31.793Z,1.81
2023-06-29T00:19:31.841Z,2.22
2023-06-29T00:20:31.875Z,1.60
2023-06-29T00:21:31.967Z,2.33
2023-06-29T00:22:32.014Z,1.99
2023-06-29T00:23:32.092Z,2.29
2023-06-29T00:24:32.119Z,2.23
2023-06-29T00:25:32.204Z,2.00
2023-06-29T00:26:32.242Z,2.21
2023-06-29T00:27:32.305Z,2.38
2023-06-29T00:28:32.372Z,1.77
2023-06-29T00:29:32.446Z,1.70
2023-06-29T00:30:32.512Z,2.41
2023-06-29T00:31:32.637Z,2.07
2023-06-29T00:32:32.701Z,2.08
2023-06-29T00:33:32.675Z,2.16
2023-06-29T00:34:32.765Z,2.49
2023-06-29T00:35:32.783Z,1.97
2023-06-29T00:36:32.893Z,2.13
2023-06-29T00:37:32.927Z,2.03
2023-06-29T00:38:33.006Z,2.35
2023-06-29T00:39:33.055Z,2.27
2023-06-29T00:40:33.112Z,2.33
2023-06-29T00:41:33.162Z,1.73
2023-06-29T00:42:33.236Z,1.99
2023-06-29T00:43:33.302Z,2.02
2023-06-29T00:44:33.333Z,1.45
2023-06-29T00:45:33.466Z,2.40
2023-06-29T00:46:33.526Z,2.46
2023-06-29T00:47:33.542Z,2.12
2023-06-29T00:48:33.574Z,2.17
2023-06-29T00:49:33.623Z,1.80
2023-06-29T00:50:33.665Z,1.87
2023-06-29T00:51:33.741Z,2.18
2023-06-29T00:52:33.809Z,2.10
2023-06-29T00:53:33.854Z,2.01
2023-06-29T00:54:33.908Z,2.26
2023-06-29T00:55:33.984Z,1.89
2023-06-29T00:56:34.013Z,2.77
2023-06-29T00:57:34.100Z,2.10
2023-06-29T00:58:34.108Z,1.76
2023-06-29T00:59:34.164Z,2.42
2023-06-29T01:00:34.272Z,1.91
2023-06-29T01:01:34.270Z,1.92
2023-06-29T01:02:34.390Z,1.94
2023-06-29T01:03:34.625Z,2.46
2023-06-29T01:04:34.501Z,1.78
2023-06-29T01:05:34.544Z,2.07
2023-06-29T01:06:34.585Z,2.50
2023-06-29T01:07:34.895Z,2.23
2023-06-29T01:08:34.712Z,2.05
2023-06-29T01:09:34.748Z,2.09
2023-06-29T01:10:34.780Z,2.38
2023-06-29T01:11:34.844Z,2.84
2023-06-29T01:12:34.849Z,2.58
2023-06-29T01:13:34.903Z,2.32
2023-06-29T01:14:34.940Z,2.40
2023-06-29T01:15:34.961Z,2.19
2023-06-29T01:16:35.047Z,3.01
2023-06-29T01:17:35.046Z,2.62
2023-06-29T01:18:35.040Z,1.88
2023-06-29T01:19:35.063Z,2.61
2023-06-29T01:20:35.092Z,2.49
2023-06-29T01:21:35.101Z,2.66
2023-06-29T01:22:35.147Z,2.21
2023-06-29T01:23:35.157Z,2.40
2023-06-29T01:24:35.168Z,2.26
2023-06-29T01:25:35.164Z,2.24
2023-06-29T01:26:35.186Z,2.11
2023-06-29T01:27:35.267Z,2.47
2023-06-29T01:28:35.216Z,2.41
2023-06-29T01:29:35.227Z,2.10
2023-06-29T01:30:35.271Z,2.46
2023-06-29T01:31:35.330Z,2.40
2023-06-29T01:32:35.376Z,2.22
2023-06-29T01:33:35.300Z,2.16
2023-06-29T01:34:35.343Z,2.59
2023-06-29T01:35:35.308Z,2.47
2023-06-29T01:36:35.291Z,2.46
2023-06-29T01:37:35.278Z,2.71
2023-06-29T01:38:35.311Z,2.36
2023-06-29T01:39:35.280Z,2.75
2023-06-29T01:40:35.298Z,2.64
2023-06-29T01:41:35.854Z,2.24
2023-06-29T01:42:35.405Z,2.30
2023-06-29T01:43:35.347Z,2.44
2023-06-29T01:44:35.405Z,2.48
2023-06-29T01:45:35.434Z,2.20
2023-06-29T01:46:35.646Z,2.06
2023-06-29T01:47:35.490Z,2.35
2023-06-29T01:48:35.528Z,2.27
2023-06-29T01:49:35.547Z,2.21
2023-06-29T01:50:35.576Z,2.05
2023-06-29T01:51:35.621Z,2.29
2023-06-29T01:52:35.591Z,2.42
2023-06-29T01:53:35.636Z,2.40
2023-06-29T01:54:35.692Z,2.76
2023-06-29T01:55:35.751Z,1.94
2023-06-29T01:56:35.690Z,2.34
2023-06-29T01:57:35.708Z,2.35
2023-06-29T01:58:35.729Z,2.74
2023-06-29T01:59:35.730Z,2.40
2023-06-29T02:00:38.460Z,2.97
2023-06-29T02:01:35.781Z,2.23
2023-06-29T02:02:35.825Z,1.87
2023-06-29T02:03:35.877Z,2.19
2023-06-29T02:04:35.758Z,2.15
2023-06-29T02:05:35.718Z,2.04
2023-06-29T02:06:35.727Z,2.15
2023-06-29T02:07:35.742Z,2.17
2023-06-29T02:08:35.702Z,2.26
2023-06-29T02:09:35.707Z,2.04
2023-06-29T02:10:35.706Z,1.93
2023-06-29T02:11:35.675Z,2.31
2023-06-29T02:12:35.686Z,2.13
2023-06-29T02:13:35.689Z,2.27
2023-06-29T02:14:35.695Z,1.74
2023-06-29T02:15:35.630Z,2.00
2023-06-29T02:16:35.689Z,2.74
2023-06-29T02:17:35.752Z,2.03
2023-06-29T02:18:35.648Z,2.02
2023-06-29T02:19:35.647Z,1.83
2023-06-29T02:20:35.625Z,2.11
2023-06-29T02:21:35.622Z,2.28
2023-06-29T02:22:35.618Z,2.46
2023-06-29T02:23:35.609Z,2.42
2023-06-29T02:24:35.745Z,2.44
2023-06-29T02:25:35.589Z,2.19
2023-06-29T02:26:35.641Z,2.41
2023-06-29T02:27:35.617Z,2.25
2023-06-29T02:28:35.588Z,2.73
2023-06-29T02:29:35.578Z,2.38
2023-06-29T02:30:35.575Z,2.44
2023-06-29T02:31:35.570Z,2.44
2023-06-29T02:32:35.602Z,2.26
2023-06-29T02:33:35.527Z,2.59
2023-06-29T02:34:35.548Z,2.19
2023-06-29T02:35:35.532Z,2.46
2023-06-29T02:36:35.515Z,2.03
2023-06-29T02:37:35.507Z,2.34
2023-06-29T02:38:35.533Z,1.86
2023-06-29T02:39:35.517Z,2.17
2023-06-29T02:40:35.526Z,2.41
2023-06-29T02:41:35.499Z,2.31
2023-06-29T02:42:36.368Z,2.40
2023-06-29T02:43:35.482Z,2.22
2023-06-29T02:44:35.492Z,2.18
2023-06-29T02:45:35.453Z,2.39
2023-06-29T02:46:35.505Z,2.32
2023-06-29T02:47:35.494Z,2.39
2023-06-29T02:48:35.449Z,2.89
2023-06-29T02:49:35.475Z,2.07
2023-06-29T02:50:35.440Z,2.27
2023-06-29T02:51:35.441Z,2.59
2023-06-29T02:52:35.437Z,2.31
2023-06-29T02:53:35.421Z,2.22
2023-06-29T02:54:35.409Z,2.05
2023-06-29T02:55:35.426Z,2.63
2023-06-29T02:56:35.427Z,2.79
2023-06-29T02:57:35.434Z,1.99
2023-06-29T02:58:35.416Z,2.42
2023-06-29T02:59:35.381Z,2.07
2023-06-29T03:00:35.403Z,2.59
2023-06-29T03:01:35.426Z,1.96
2023-06-29T03:02:35.504Z,2.26
2023-06-29T03:03:35.430Z,1.97
2023-06-29T03:04:35.367Z,2.76
2023-06-29T03:05:35.359Z,2.25
2023-06-29T03:06:35.380Z,2.57
2023-06-29T03:07:35.357Z,2.66
2023-06-29T03:08:35.342Z,2.29
2023-06-29T03:09:35.346Z,2.52
2023-06-29T03:10:35.868Z,2.76
2023-06-29T03:11:35.309Z,2.27
2023-06-29T03:12:35.296Z,2.50
2023-06-29T03:13:35.329Z,1.97
2023-06-29T03:14:35.274Z,2.16
2023-06-29T03:15:35.309Z,2.60
2023-06-29T03:16:35.280Z,2.30
2023-06-29T03:17:35.332Z,2.06
2023-06-29T03:18:35.282Z,2.28
2023-06-29T03:19:35.284Z,2.20
2023-06-29T03:20:35.275Z,2.64
2023-06-29T03:21:35.254Z,2.31
2023-06-29T03:22:35.257Z,2.59
2023-06-29T03:23:35.264Z,2.51
2023-06-29T03:24:35.269Z,2.12
2023-06-29T03:25:35.233Z,2.92
2023-06-29T03:26:35.216Z,2.72
2023-06-29T03:27:35.206Z,2.41
2023-06-29T03:28:35.210Z,2.07
2023-06-29T03:29:35.220Z,2.54
2023-06-29T03:30:35.281Z,2.31
2023-06-29T03:31:35.172Z,2.60
2023-06-29T03:32:35.223Z,2.45
2023-06-29T03:33:35.162Z,2.40
2023-06-29T03:34:35.168Z,2.58
2023-06-29T03:35:35.165Z,2.60
2023-06-29T03:36:35.158Z,2.43
2023-06-29T03:37:35.153Z,2.39
2023-06-29T03:38:35.161Z,2.98
2023-06-29T03:39:35.146Z,2.68
2023-06-29T03:40:35.152Z,2.27
2023-06-29T03:41:35.168Z,2.82
2023-06-29T03:42:35.114Z,2.45
2023-06-29T03:43:36.950Z,2.68
2023-06-29T03:44:35.175Z,2.38
2023-06-29T03:45:35.199Z,2.86
2023-06-29T03:46:35.285Z,2.22
2023-06-29T03:47:35.361Z,2.02
2023-06-29T03:48:35.436Z,2.64
2023-06-29T03:49:35.322Z,3.05
2023-06-29T03:50:35.365Z,2.54
2023-06-29T03:51:35.388Z,2.75
2023-06-29T03:52:35.415Z,3.09
2023-06-29T03:53:35.445Z,2.57
2023-06-29T03:54:35.596Z,2.75
2023-06-29T03:55:35.532Z,2.35
2023-06-29T03:56:35.544Z,2.48
2023-06-29T03:57:35.599Z,2.78
2023-06-29T03:58:35.605Z,2.82
2023-06-29T03:59:35.681Z,3.35
2023-06-29T04:00:35.710Z,2.89
2023-06-29T04:01:35.735Z,3.13
2023-06-29T04:02:35.822Z,2.61
2023-06-29T04:03:35.829Z,3.08
2023-06-29T04:04:35.798Z,2.77
2023-06-29T04:05:35.843Z,2.61
2023-06-29T04:06:35.853Z,2.96
2023-06-29T04:07:35.927Z,3.30
2023-06-29T04:08:35.960Z,2.58
2023-06-29T04:09:35.967Z,2.58
2023-06-29T04:10:35.997Z,2.66
2023-06-29T04:11:36.020Z,2.74
2023-06-29T04:12:36.057Z,2.32
2023-06-29T04:13:36.086Z,2.64
2023-06-29T04:14:36.109Z,2.45
2023-06-29T04:15:36.117Z,2.64
2023-06-29T04:16:36.186Z,2.57
2023-06-29T04:17:36.239Z,2.63
2023-06-29T04:18:36.244Z,2.29
2023-06-29T04:19:36.209Z,1.95
2023-06-29T04:20:36.269Z,2.86
2023-06-29T04:21:36.314Z,2.47
2023-06-29T04:22:36.315Z,2.60
2023-06-29T04:23:36.366Z,2.91
2023-06-29T04:24:36.406Z,2.97
2023-06-29T04:25:36.433Z,2.62
2023-06-29T04:26:36.468Z,3.04
2023-06-29T04:27:36.475Z,2.53
2023-06-29T04:28:36.544Z,2.47
2023-06-29T04:29:36.546Z,2.30
2023-06-29T04:30:36.650Z,2.74
2023-06-29T04:31:36.647Z,2.36
2023-06-29T04:32:36.723Z,2.52
2023-06-29T04:33:36.690Z,2.65
2023-06-29T04:34:36.717Z,3.02
2023-06-29T04:35:36.766Z,2.39
2023-06-29T04:36:36.800Z,2.79
2023-06-29T04:37:36.841Z,2.55
2023-06-29T04:38:36.867Z,2.58
2023-06-29T04:39:36.883Z,2.91
2023-06-29T04:40:36.930Z,2.76
2023-06-29T04:41:36.938Z,2.89
2023-06-29T04:42:37.000Z,3.04
2023-06-29T04:43:36.974Z,2.41
2023-06-29T04:44:36.989Z,2.61
2023-06-29T04:45:37.057Z,2.67
2023-06-29T04:46:37.130Z,2.82
2023-06-29T04:47:37.141Z,2.82
2023-06-29T04:48:37.144Z,2.15
2023-06-29T04:49:37.190Z,3.03
2023-06-29T04:50:37.165Z,2.70
2023-06-29T04:51:37.223Z,2.94
2023-06-29T04:52:37.221Z,2.50
2023-06-29T04:53:37.244Z,2.73
2023-06-29T04:54:37.256Z,2.67
2023-06-29T04:55:37.293Z,2.59
2023-06-29T04:56:37.330Z,2.72
2023-06-29T04:57:37.434Z,2.68
2023-06-29T04:58:37.344Z,2.28
2023-06-29T04:59:37.349Z,2.66
2023-06-29T05:00:37.426Z,2.64
2023-06-29T05:01:37.440Z,3.01
2023-06-29T05:02:37.526Z,2.32
2023-06-29T05:03:37.514Z,2.61
2023-06-29T05:04:37.469Z,2.74
2023-06-29T05:05:37.484Z,2.84
2023-06-29T05:06:37.478Z,2.80
2023-06-29T05:07:37.543Z,2.60
2023-06-29T05:08:37.540Z,2.51
2023-06-29T05:09:37.566Z,2.92
2023-06-29T05:10:37.576Z,2.64
2023-06-29T05:11:37.579Z,2.24
2023-06-29T05:12:37.651Z,2.12
2023-06-29T05:13:37.616Z,2.50
2023-06-29T05:14:37.629Z,2.77
2023-06-29T05:15:37.647Z,2.25
2023-06-29T05:16:38.046Z,2.91
2023-06-29T05:17:38.748Z,2.62
2023-06-29T05:18:38.255Z,2.18
2023-06-29T05:19:37.782Z,2.78
2023-06-29T05:20:37.820Z,2.12
2023-06-29T05:21:38.193Z,2.82
2023-06-29T05:22:37.828Z,2.45
2023-06-29T05:23:37.880Z,3.06
2023-06-29T05:24:37.865Z,2.47
2023-06-29T05:25:37.925Z,2.43
2023-06-29T05:26:37.942Z,2.45
2023-06-29T05:27:37.962Z,3.06
2023-06-29T05:28:37.969Z,2.80
2023-06-29T05:29:37.999Z,2.48
2023-06-29T05:30:37.997Z,2.25
2023-06-29T05:31:39.205Z,2.49
2023-06-29T05:32:38.115Z,2.86
2023-06-29T05:33:38.069Z,2.50
2023-06-29T05:34:38.093Z,2.69
2023-06-29T05:35:38.116Z,2.08
2023-06-29T05:36:38.411Z,2.50
2023-06-29T05:37:38.205Z,2.47
2023-06-29T05:38:38.190Z,2.35
2023-06-29T05:39:38.364Z,2.28
2023-06-29T05:40:38.228Z,3.06
2023-06-29T05:41:38.278Z,2.82
2023-06-29T05:42:38.305Z,2.55
2023-06-29T05:43:38.301Z,2.61
2023-06-29T05:44:38.310Z,2.50
2023-06-29T05:45:38.364Z,1.99
2023-06-29T05:46:38.377Z,2.20
2023-06-29T05:47:38.406Z,2.95
2023-06-29T05:48:38.431Z,2.89
2023-06-29T05:49:38.414Z,3.19
2023-06-29T05:50:38.450Z,3.49
2023-06-29T05:51:38.495Z,2.82
2023-06-29T05:52:38.501Z,2.81
2023-06-29T05:53:38.474Z,2.24
2023-06-29T05:54:38.521Z,2.92
2023-06-29T05:55:38.514Z,2.62
2023-06-29T05:56:38.538Z,2.89
2023-06-29T05:57:38.563Z,3.51
2023-06-29T05:58:38.671Z,1.96
2023-06-29T05:59:38.581Z,2.76
2023-06-29T06:00:38.579Z,2.01
2023-06-29T06:01:38.621Z,2.19
2023-06-29T06:02:38.614Z,2.55
2023-06-29T06:03:38.617Z,2.56
2023-06-29T06:04:38.594Z,1.89
2023-06-29T06:05:38.611Z,2.15
2023-06-29T06:06:38.625Z,1.94
2023-06-29T06:07:38.687Z,2.32
2023-06-29T06:08:38.650Z,1.83
2023-06-29T06:09:38.652Z,2.89
2023-06-29T06:10:38.679Z,2.72
2023-06-29T06:11:38.664Z,2.02
2023-06-29T06:12:38.692Z,1.93
2023-06-29T06:13:38.746Z,2.56
2023-06-29T06:14:38.759Z,2.59
2023-06-29T06:15:38.782Z,2.02
2023-06-29T06:16:38.879Z,2.82
2023-06-29T06:17:38.897Z,3.16
2023-06-29T06:18:38.944Z,3.00
2023-06-29T06:19:38.987Z,2.65
2023-06-29T06:20:39.060Z,3.19
2023-06-29T06:21:39.083Z,2.72
2023-06-29T06:22:39.087Z,2.88
2023-06-29T06:23:39.137Z,3.35
2023-06-29T06:24:39.172Z,2.90
2023-06-29T06:25:39.166Z,3.02
2023-06-29T06:26:39.211Z,3.03
2023-06-29T06:27:39.229Z,2.50
2023-06-29T06:28:39.226Z,2.73
2023-06-29T06:29:39.242Z,3.54
2023-06-29T06:30:39.295Z,2.81
2023-06-29T06:31:39.334Z,3.34
2023-06-29T06:32:39.294Z,2.99
2023-06-29T06:33:39.288Z,3.41
2023-06-29T06:34:39.288Z,3.43
2023-06-29T06:35:39.315Z,3.04
2023-06-29T06:36:39.330Z,2.79
2023-06-29T06:37:39.396Z,3.02
2023-06-29T06:38:49.363Z,3.38
2023-06-29T06:39:40.383Z,3.32
2023-06-29T06:40:39.439Z,3.15
2023-06-29T06:41:39.381Z,3.11
2023-06-29T06:42:39.407Z,2.71
2023-06-29T06:43:39.361Z,2.93
2023-06-29T06:44:39.355Z,3.12
2023-06-29T06:45:39.332Z,2.79
2023-06-29T06:46:39.485Z,3.79
2023-06-29T06:47:39.367Z,3.58
2023-06-29T06:48:39.327Z,3.07
2023-06-29T06:49:39.363Z,3.30
2023-06-29T06:50:39.359Z,3.61
2023-06-29T06:51:39.411Z,3.53
2023-06-29T06:52:39.446Z,2.94
2023-06-29T06:53:39.433Z,2.99
2023-06-29T06:54:39.441Z,3.49
2023-06-29T06:55:39.421Z,3.29
2023-06-29T06:56:39.410Z,3.38
2023-06-29T06:57:39.517Z,3.58
2023-06-29T06:58:39.408Z,4.08
2023-06-29T06:59:39.498Z,3.54
2023-06-29T07:00:39.543Z,3.68
2023-06-29T07:01:39.658Z,3.37
2023-06-29T07:02:39.645Z,3.67
2023-06-29T07:03:39.581Z,3.73
2023-06-29T07:04:39.594Z,3.60
2023-06-29T07:05:39.713Z,4.24
2023-06-29T07:06:39.715Z,4.73
2023-06-29T07:07:39.850Z,4.24
2023-06-29T07:08:39.804Z,3.47
2023-06-29T07:09:39.825Z,3.80
2023-06-29T07:10:39.910Z,3.51
2023-06-29T07:11:39.931Z,3.42
2023-06-29T07:12:40.017Z,3.65
2023-06-29T07:13:40.089Z,2.79
2023-06-29T07:14:40.119Z,3.43
2023-06-29T07:15:40.187Z,3.74
2023-06-29T07:16:40.255Z,3.14
2023-06-29T07:17:40.358Z,3.53
2023-06-29T07:18:40.337Z,3.85
2023-06-29T07:21:40.893Z,3.43
2023-06-29T07:24:40.381Z,3.13
2023-06-29T07:25:40.367Z,3.24
2023-06-29T07:26:40.654Z,3.29
2023-06-29T07:27:40.367Z,3.72
2023-06-29T07:28:40.371Z,3.82
2023-06-29T07:29:40.366Z,3.39
2023-06-29T07:30:40.394Z,3.25
2023-06-29T07:31:40.337Z,4.55
2023-06-29T07:32:40.417Z,3.40
2023-06-29T07:33:40.357Z,3.72
2023-06-29T07:34:40.320Z,3.46
2023-06-29T07:35:40.332Z,2.70
2023-06-29T07:36:40.340Z,3.50
2023-06-29T07:37:40.282Z,3.21
2023-06-29T07:38:40.561Z,3.72
2023-06-29T07:39:40.277Z,4.13
2023-06-29T07:40:40.288Z,4.88
2023-06-29T07:41:40.299Z,4.58
2023-06-29T07:42:40.719Z,3.53
2023-06-29T07:43:40.263Z,3.58
2023-06-29T07:44:40.260Z,4.09
2023-06-29T07:45:40.257Z,3.46
2023-06-29T07:46:40.338Z,3.27
2023-06-29T07:47:40.302Z,4.09
2023-06-29T07:48:40.441Z,3.50
2023-06-29T07:49:40.222Z,3.62
2023-06-29T07:50:40.390Z,3.99
2023-06-29T07:51:40.241Z,3.97
2023-06-29T07:52:42.007Z,3.90
2023-06-29T07:53:40.230Z,3.39
2023-06-29T07:54:40.183Z,3.53
2023-06-29T07:55:40.316Z,4.02
2023-06-29T07:58:40.522Z,3.67
2023-06-29T07:59:40.168Z,3.13
2023-06-29T08:00:40.173Z,3.95
2023-06-29T08:01:40.203Z,4.22
2023-06-29T08:02:40.212Z,4.24
2023-06-29T08:03:59.533Z,3.46
2023-06-29T08:07:40.216Z,3.42
2023-06-29T08:08:40.346Z,3.70
2023-06-29T08:09:40.097Z,3.66
2023-06-29T08:10:40.143Z,3.87
2023-06-29T08:11:40.144Z,3.10
2023-06-29T08:12:40.113Z,3.77
2023-06-29T08:13:40.068Z,4.15
2023-06-29T08:14:40.065Z,3.46
2023-06-29T08:15:40.426Z,3.97
2023-06-29T08:16:40.140Z,3.38
2023-06-29T08:17:40.152Z,3.84
2023-06-29T08:18:40.568Z,3.47
2023-06-29T08:19:40.063Z,3.07
2023-06-29T08:20:40.059Z,3.74
2023-06-29T08:21:40.016Z,3.55
2023-06-29T08:22:40.015Z,3.55
2023-06-29T08:23:40.030Z,3.30
2023-06-29T08:24:40.061Z,3.60
2023-06-29T08:25:40.041Z,3.44
2023-06-29T08:26:40.022Z,3.07
2023-06-29T08:27:39.998Z,3.74
2023-06-29T08:28:40.012Z,3.89
2023-06-29T08:29:39.977Z,3.68
2023-06-29T08:30:39.967Z,3.20
2023-06-29T08:31:39.984Z,2.92
2023-06-29T08:32:39.955Z,3.34
2023-06-29T08:33:40.117Z,3.62
2023-06-29T08:34:39.975Z,3.59
2023-06-29T08:35:39.961Z,4.10
2023-06-29T08:36:39.954Z,3.63
2023-06-29T08:37:39.988Z,3.82
2023-06-29T08:38:40.004Z,4.13
2023-06-29T08:39:39.935Z,3.64
2023-06-29T08:40:39.967Z,3.53
2023-06-29T08:41:39.980Z,3.54
2023-06-29T08:42:39.902Z,3.40
2023-06-29T08:43:40.190Z,3.63
2023-06-29T08:44:39.911Z,3.48
2023-06-29T08:45:39.947Z,3.59
2023-06-29T08:46:40.099Z,3.14
2023-06-29T08:47:39.945Z,3.09
2023-06-29T08:48:39.907Z,3.47
2023-06-29T08:49:39.860Z,3.54
2023-06-29T08:50:39.850Z,3.22
2023-06-29T08:51:39.900Z,2.96
2023-06-29T08:52:39.853Z,3.01
2023-06-29T08:53:39.865Z,3.06
2023-06-29T08:54:39.890Z,3.27
2023-06-29T08:55:39.915Z,3.45
2023-06-29T08:56:40.030Z,3.11
2023-06-29T08:57:40.089Z,3.31
2023-06-29T08:58:40.081Z,3.10
2023-06-29T08:59:40.125Z,3.07
2023-06-29T09:00:40.121Z,3.23
2023-06-29T09:01:40.256Z,3.54
2023-06-29T09:02:40.386Z,3.81
2023-06-29T09:03:40.499Z,3.40
2023-06-29T09:04:40.377Z,3.37
2023-06-29T09:05:40.439Z,3.70
2023-06-29T09:06:40.525Z,3.17
2023-06-29T09:07:40.693Z,3.46
2023-06-29T09:08:40.799Z,3.59
2023-06-29T09:09:40.720Z,3.21
2023-06-29T09:10:40.753Z,2.71
2023-06-29T09:11:43.298Z,2.80
2023-06-29T09:12:40.830Z,3.43
2023-06-29T09:13:40.858Z,2.98
2023-06-29T09:14:40.742Z,2.87
2023-06-29T09:15:40.816Z,3.27
2023-06-29T09:16:40.854Z,3.78
2023-06-29T09:17:40.782Z,3.76
2023-06-29T09:18:40.738Z,3.39
2023-06-29T09:19:40.744Z,2.78
2023-06-29T09:20:40.778Z,3.05
2023-06-29T09:21:40.753Z,3.34
2023-06-29T09:22:40.732Z,4.03
2023-06-29T09:23:40.753Z,3.75
2023-06-29T09:24:49.561Z,3.43
2023-06-29T09:25:41.741Z,3.12
2023-06-29T09:26:40.737Z,2.99
2023-06-29T09:27:40.732Z,3.73
2023-06-29T09:28:40.841Z,2.80
2023-06-29T09:29:40.980Z,3.51
2023-06-29T09:30:40.775Z,3.56
2023-06-29T09:31:40.671Z,3.88
2023-06-29T09:32:40.849Z,3.39
2023-06-29T09:33:40.685Z,2.96
2023-06-29T09:34:40.651Z,3.27
2023-06-29T09:35:40.747Z,3.59
2023-06-29T09:36:40.695Z,3.50
2023-06-29T09:37:40.726Z,3.09
2023-06-29T09:38:40.798Z,3.29
2023-06-29T09:39:40.815Z,3.16
2023-06-29T09:40:40.933Z,3.25
2023-06-29T09:41:40.928Z,3.57
2023-06-29T09:42:40.995Z,3.60
2023-06-29T09:43:41.061Z,3.43
2023-06-29T09:44:41.119Z,3.91
2023-06-29T09:45:41.194Z,3.61
2023-06-29T09:46:41.454Z,3.63
2023-06-29T09:49:41.352Z,3.36
2023-06-29T09:50:41.499Z,3.91
2023-06-29T09:51:41.272Z,3.47
2023-06-29T09:52:41.304Z,3.43
2023-06-29T09:53:41.270Z,3.29
2023-06-29T09:54:42.035Z,4.17
2023-06-29T09:55:41.265Z,3.54
2023-06-29T09:56:41.231Z,3.78
2023-06-29T09:57:41.268Z,3.73
2023-06-29T09:58:41.220Z,3.64
2023-06-29T09:59:41.210Z,3.59
2023-06-29T10:00:41.307Z,3.09
2023-06-29T10:01:41.300Z,3.63
2023-06-29T10:02:41.275Z,3.45
2023-06-29T10:03:41.235Z,3.67
2023-06-29T10:04:41.249Z,3.44
2023-06-29T10:05:41.177Z,2.82
2023-06-29T10:06:41.173Z,3.01
2023-06-29T10:07:41.356Z,3.48
2023-06-29T10:08:41.176Z,3.08
2023-06-29T10:09:41.191Z,3.73
2023-06-29T10:10:41.175Z,3.44
2023-06-29T10:11:41.140Z,2.86
2023-06-29T10:12:41.136Z,3.25
2023-06-29T10:13:41.150Z,3.31
2023-06-29T10:14:41.152Z,3.75
2023-06-29T10:15:41.100Z,3.62
2023-06-29T10:16:41.164Z,3.58
2023-06-29T10:17:41.145Z,3.37
2023-06-29T10:18:41.114Z,3.09
2023-06-29T10:19:41.148Z,3.00
2023-06-29T10:20:41.086Z,3.26
2023-06-29T10:21:41.096Z,2.97
2023-06-29T10:22:41.086Z,3.97
2023-06-29T10:23:41.097Z,3.50
2023-06-29T10:24:41.032Z,3.54
2023-06-29T10:25:41.091Z,3.68
2023-06-29T10:26:41.011Z,3.41
2023-06-29T10:27:41.057Z,3.43
2023-06-29T10:29:56.357Z,3.76
2023-06-29T10:30:56.390Z,3.57
2023-06-29T10:31:56.367Z,2.92
2023-06-29T10:32:56.380Z,3.50
2023-06-29T10:33:56.338Z,3.19
2023-06-29T10:34:56.366Z,3.29
2023-06-29T10:35:56.341Z,2.98
2023-06-29T10:36:56.348Z,3.15
2023-06-29T10:37:56.338Z,3.11
2023-06-29T10:38:56.357Z,3.24
2023-06-29T10:39:56.314Z,3.65
2023-06-29T10:40:56.318Z,3.44
2023-06-29T10:41:56.305Z,3.57
2023-06-29T10:42:56.350Z,3.07
2023-06-29T10:43:56.320Z,3.14
2023-06-29T10:44:56.282Z,3.41
2023-06-29T10:45:56.266Z,3.91
2023-06-29T10:46:56.476Z,3.37
2023-06-29T10:47:56.359Z,3.75
2023-06-29T10:48:56.269Z,2.84
2023-06-29T10:49:56.278Z,2.88
2023-06-29T10:50:56.269Z,3.39
2023-06-29T10:51:56.267Z,3.39
2023-06-29T10:52:56.237Z,3.51
2023-06-29T10:53:56.245Z,3.85
2023-06-29T10:54:56.234Z,3.46
2023-06-29T10:55:56.223Z,3.41
2023-06-29T10:56:56.232Z,3.81
2023-06-29T10:57:56.198Z,4.07
2023-06-29T10:58:56.262Z,3.76
2023-06-29T10:59:56.209Z,3.64
2023-06-29T11:00:56.210Z,4.71
2023-06-29T11:01:56.267Z,3.86
2023-06-29T11:02:56.297Z,4.00
2023-06-29T11:03:56.222Z,3.30
2023-06-29T11:04:56.142Z,4.21
2023-06-29T11:05:56.144Z,3.92
2023-06-29T11:06:56.166Z,3.52
2023-06-29T11:07:56.142Z,3.37
2023-06-29T11:08:56.148Z,3.86
2023-06-29T11:09:56.126Z,3.60
2023-06-29T11:10:56.120Z,3.46
2023-06-29T11:11:56.131Z,3.68
2023-06-29T11:12:56.138Z,3.91
2023-06-29T11:13:56.119Z,3.53
2023-06-29T11:15:14.159Z,3.34
2023-06-29T11:15:57.120Z,3.74
2023-06-29T11:16:56.249Z,3.89
2023-06-29T11:17:56.186Z,3.77
2023-06-29T11:18:56.091Z,4.26
2023-06-29T11:19:56.075Z,3.78
2023-06-29T11:20:56.112Z,3.34
2023-06-29T11:21:56.056Z,3.60
2023-06-29T11:22:56.044Z,3.55
2023-06-29T11:23:56.059Z,3.54
2023-06-29T11:24:56.041Z,3.75
2023-06-29T11:25:56.025Z,3.86
2023-06-29T11:26:56.044Z,3.82
2023-06-29T11:27:56.056Z,3.62
2023-06-29T11:28:56.067Z,3.42
2023-06-29T11:29:56.109Z,4.31
2023-06-29T11:30:56.593Z,3.35
2023-06-29T11:31:56.234Z,3.57
2023-06-29T11:32:56.323Z,3.57
2023-06-29T11:33:56.314Z,3.77
2023-06-29T11:34:56.349Z,3.27
2023-06-29T11:35:56.436Z,3.16
2023-06-29T11:37:09.624Z,3.44
2023-06-29T11:37:57.507Z,4.16
2023-06-29T11:38:56.424Z,4.28
2023-06-29T11:39:56.470Z,3.74
2023-06-29T11:40:56.421Z,3.53
2023-06-29T11:41:56.405Z,3.42
2023-06-29T11:42:56.424Z,3.92
2023-06-29T11:43:56.413Z,3.88
2023-06-29T11:44:56.415Z,3.77
2023-06-29T11:45:56.430Z,4.05
2023-06-29T11:47:12.238Z,3.59
2023-06-29T11:47:57.441Z,4.09
2023-06-29T11:48:56.445Z,4.09
2023-06-29T11:49:56.391Z,3.46
2023-06-29T11:50:56.472Z,3.50
2023-06-29T11:51:56.378Z,3.12
2023-06-29T11:52:56.393Z,3.71
2023-06-29T11:53:56.427Z,3.46
2023-06-29T11:54:56.367Z,3.49
2023-06-29T11:55:56.387Z,4.04
2023-06-29T11:56:56.498Z,4.10
2023-06-29T11:57:56.544Z,3.54
2023-06-29T11:58:56.652Z,3.82
2023-06-29T11:59:56.623Z,3.58
2023-06-29T12:00:56.689Z,3.34
2023-06-29T12:01:56.728Z,4.09
2023-06-29T12:02:56.798Z,4.04
2023-06-29T12:03:56.968Z,3.74
2023-06-29T12:04:57.071Z,5.35
2023-06-29T12:05:56.935Z,4.65
2023-06-29T12:06:57.050Z,4.84
2023-06-29T12:07:57.158Z,4.29
2023-06-29T12:08:57.121Z,4.13
2023-06-29T12:09:57.151Z,3.78
2023-06-29T12:10:57.212Z,3.94
2023-06-29T12:11:58.045Z,5.57
2023-06-29T12:12:57.326Z,5.21
2023-06-29T12:13:57.346Z,4.08
2023-06-29T12:14:57.384Z,3.30
2023-06-29T12:18:01.128Z,3.76
2023-06-29T12:18:57.556Z,3.19
2023-06-29T12:20:09.825Z,4.00
2023-06-29T12:20:58.499Z,3.94
2023-06-29T12:21:57.797Z,4.68
2023-06-29T12:22:57.364Z,4.65
2023-06-29T12:23:57.380Z,4.61
2023-06-29T12:24:57.376Z,3.99
2023-06-29T12:25:57.393Z,4.32
2023-06-29T12:26:57.373Z,3.62
2023-06-29T12:27:57.373Z,4.22
2023-06-29T12:28:57.328Z,4.35
2023-06-29T12:29:57.347Z,3.95
2023-06-29T12:30:57.438Z,3.94
2023-06-29T12:31:57.501Z,4.19
2023-06-29T12:32:57.574Z,3.74
2023-06-29T12:33:57.584Z,4.16
2023-06-29T12:34:57.632Z,3.50
2023-06-29T12:35:57.664Z,3.87
2023-06-29T12:36:57.760Z,4.08
2023-06-29T12:37:57.811Z,4.67
2023-06-29T12:38:57.861Z,4.19
2023-06-29T12:39:57.920Z,3.84
2023-06-29T12:40:57.993Z,3.80
2023-06-29T12:41:58.040Z,3.92
2023-06-29T12:42:58.140Z,3.88
2023-06-29T12:43:58.125Z,4.29
2023-06-29T12:44:58.198Z,4.36
2023-06-29T12:45:58.508Z,3.75
2023-06-29T12:46:58.398Z,4.56
2023-06-29T12:47:58.347Z,4.01
2023-06-29T12:48:58.396Z,3.94
2023-06-29T12:49:58.428Z,3.70
2023-06-29T12:50:58.476Z,3.64
2023-06-29T12:51:58.513Z,3.71
2023-06-29T12:52:58.561Z,3.52
2023-06-29T12:53:58.604Z,3.86
2023-06-29T12:54:58.622Z,3.60
2023-06-29T12:55:58.694Z,4.00
2023-06-29T12:56:58.735Z,3.78
2023-06-29T12:57:58.769Z,3.74
2023-06-29T12:58:58.798Z,3.55
2023-06-29T12:59:58.838Z,3.71
2023-06-29T13:00:58.922Z,3.54
2023-06-29T13:01:58.934Z,3.82
2023-06-29T13:02:59.010Z,3.97
2023-06-29T13:03:59.079Z,4.01
2023-06-29T13:04:58.999Z,3.58
2023-06-29T13:05:59.042Z,3.56
2023-06-29T13:06:59.129Z,3.67
2023-06-29T13:07:59.144Z,3.47
2023-06-29T13:08:59.186Z,3.68
2023-06-29T13:09:59.169Z,3.87
2023-06-29T13:10:59.203Z,3.89
2023-06-29T13:11:59.228Z,3.81
2023-06-29T13:12:59.303Z,4.09
2023-06-29T13:13:59.302Z,3.32
2023-06-29T13:14:59.338Z,3.75
2023-06-29T13:15:59.367Z,3.58
2023-06-29T13:16:59.542Z,4.23
2023-06-29T13:17:59.441Z,3.68
2023-06-29T13:18:59.451Z,3.85
2023-06-29T13:19:59.478Z,4.17
2023-06-29T13:20:59.537Z,3.31
2023-06-29T13:21:59.588Z,3.73
2023-06-29T13:22:59.551Z,3.84
2023-06-29T13:23:59.617Z,3.91
2023-06-29T13:24:59.596Z,3.37
2023-06-29T13:25:59.641Z,4.24
2023-06-29T13:26:59.672Z,4.13
2023-06-29T13:27:59.670Z,3.35
2023-06-29T13:28:59.780Z,4.34
2023-06-29T13:29:59.707Z,3.53
2023-06-29T13:30:59.759Z,3.76
2023-06-29T13:31:59.744Z,3.43
2023-06-29T13:32:59.826Z,3.78